Terminal Aerodrome Forecast
Issued by NWS Buffalo, NY

Home | Current Version | Previous Version | Text Only | Print | Product List | Glossary On
Versions: 1 2 3 4 5 6 7 8 9 10 11 12 13 14 15 16 17 18 19 20 21 22 23 24 25 26 27 28 29 30
533
FTUS41 KBUF 211934 AAA
TAFART
TAF AMD
KART 211934Z 2120/2218 22007KT 1/2SM FG OVC002
     FM212100 22006KT 1 1/2SM BR OVC004
     FM220000 22005KT 3SM BR OVC008
     FM220500 11005KT 4SM -DZ OVC012
     FM221400 07005KT P6SM OVC020
     FM221700 07007KT P6SM OVC025=

USA.gov is the U.S. government's official web portal to all federal, state and local government web resources and services.